createdAt,value
2022-09-03T00:00:58.381Z,98141.16
2022-09-03T00:04:06.129Z,98130.22
2022-09-03T00:07:13.456Z,98132.69
2022-09-03T00:10:22.581Z,98128.31
2022-09-03T00:13:29.817Z,98132.38
2022-09-03T00:16:47.141Z,98126.88
2022-09-03T00:19:56.654Z,98132.28
2022-09-03T00:23:01.925Z,98124.41
2022-09-03T00:26:17.797Z,98129.22
2022-09-03T00:29:25.477Z,98124.47
2022-09-03T00:32:35.039Z,98123.34
2022-09-03T00:35:43.233Z,98116.69
2022-09-03T00:38:46.157Z,98130.06
2022-09-03T00:41:59.606Z,98133.19
2022-09-03T00:45:07.196Z,98128.44
2022-09-03T00:48:17.760Z,98125.22
2022-09-03T00:51:28.303Z,98122.38
2022-09-03T00:54:40.213Z,98120.38
2022-09-03T00:57:47.986Z,98121.16
2022-09-03T01:00:52.810Z,98121.53
2022-09-03T01:04:01.255Z,98123.06
2022-09-03T01:07:09.735Z,98131.38
2022-09-03T01:10:19.611Z,98125.06
2022-09-03T01:13:25.087Z,98121.91
2022-09-03T01:16:36.846Z,98116.38
2022-09-03T01:19:56.761Z,98119.97
2022-09-03T01:23:39.549Z,98127.13
2022-09-03T01:27:03.546Z,98119.69
2022-09-03T01:30:10.565Z,98123.63
2022-09-03T01:33:18.720Z,98125.53
2022-09-03T01:36:27.159Z,98123.53
2022-09-03T01:39:36.307Z,98117.19
2022-09-03T01:42:48.393Z,98125.06
2022-09-03T01:46:00.338Z,98126.63
2022-09-03T01:49:07.695Z,98130.53
2022-09-03T01:52:14.328Z,98138.47
2022-09-03T01:55:29.907Z,98139.25
2022-09-03T01:58:36.392Z,98140.09
2022-09-03T02:01:44.791Z,98125.88
2022-09-03T02:04:57.518Z,98124.31
2022-09-03T02:08:01.992Z,98137.78
2022-09-03T02:11:07.125Z,98133.88
2022-09-03T02:14:10.044Z,98133.09
2022-09-03T02:17:14.605Z,98138.19
2022-09-03T02:20:21.326Z,98134.22
2022-09-03T02:23:27.720Z,98140.53
2022-09-03T02:26:31.330Z,98144.09
2022-09-03T02:29:34.464Z,98151.22
2022-09-03T02:32:39.001Z,98148.03
2022-09-03T02:35:42.104Z,98136.16
2022-09-03T02:38:45.708Z,98139.94
2022-09-03T02:41:53.045Z,98136.53
2022-09-03T02:44:58.813Z,98134.81
2022-09-03T02:48:03.129Z,98134.69
2022-09-03T02:51:13.688Z,98121.22
2022-09-03T02:54:20.947Z,98133.59
2022-09-03T02:57:27.729Z,98133.25
2022-09-03T03:00:30.676Z,98130.03
2022-09-03T03:03:34.816Z,98140.72
2022-09-03T03:06:37.495Z,98141.16
2022-09-03T03:09:40.486Z,98140.00
2022-09-03T03:12:43.088Z,98145.00
2022-09-03T03:15:46.302Z,98146.13
2022-09-03T03:18:50.833Z,98152.66
2022-09-03T03:21:53.653Z,98155.81
2022-09-03T03:24:57.713Z,98150.63
2022-09-03T03:28:01.185Z,98165.28
2022-09-03T03:31:07.590Z,98156.63
2022-09-03T03:34:11.716Z,98151.06
2022-09-03T03:37:14.497Z,98158.00
2022-09-03T03:40:17.857Z,98154.69
2022-09-03T03:43:20.232Z,98146.75
2022-09-03T03:46:23.832Z,98150.56
2022-09-03T03:49:27.866Z,98162.06
2022-09-03T03:52:30.686Z,98166.00
2022-09-03T03:55:35.295Z,98168.84
2022-09-03T03:58:44.005Z,98164.09
2022-09-03T04:01:46.802Z,98157.78
2022-09-03T04:04:50.894Z,98168.38
2022-09-03T04:07:53.994Z,98161.22
2022-09-03T04:11:00.802Z,98162.38
2022-09-03T04:14:03.995Z,98148.06
2022-09-03T04:17:06.869Z,98158.34
2022-09-03T04:20:11.293Z,98160.09
2022-09-03T04:23:13.927Z,98159.31
2022-09-03T04:26:19.074Z,98149.78
2022-09-03T04:29:22.791Z,98154.44
2022-09-03T04:32:43.032Z,98161.59
2022-09-03T04:35:47.163Z,98159.16
2022-09-03T04:38:51.713Z,98162.94
2022-09-03T04:41:54.707Z,98164.81
2022-09-03T04:44:57.427Z,98170.72
2022-09-03T04:48:00.812Z,98174.56
2022-09-03T04:51:06.268Z,98175.34
2022-09-03T04:54:09.987Z,98161.91
2022-09-03T04:57:12.998Z,98159.59
2022-09-03T05:00:18.201Z,98167.63
2022-09-03T05:03:22.091Z,98163.91
2022-09-03T05:06:27.047Z,98167.03
2022-09-03T05:09:29.733Z,98168.00
2022-09-03T05:12:33.572Z,98163.88
2022-09-03T05:15:36.634Z,98166.06
2022-09-03T05:18:42.017Z,98169.63
2022-09-03T05:21:46.058Z,98167.75
2022-09-03T05:24:48.792Z,98163.88
2022-09-03T05:27:51.751Z,98170.00
2022-09-03T05:31:00.501Z,98166.63
2022-09-03T05:34:04.907Z,98167.53
2022-09-03T05:37:09.025Z,98176.66
2022-09-03T05:40:13.071Z,98173.94
2022-09-03T05:43:17.242Z,98174.75
2022-09-03T05:46:20.113Z,98166.56
2022-09-03T05:49:22.783Z,98185.22
2022-09-03T05:52:26.976Z,98177.44
2022-09-03T05:55:29.856Z,98182.22
2022-09-03T05:58:33.110Z,98187.84
2022-09-03T06:01:36.043Z,98184.75
2022-09-03T06:04:38.841Z,98183.22
2022-09-03T06:07:42.996Z,98193.88
2022-09-03T06:10:45.803Z,98190.78
2022-09-03T06:13:48.547Z,98199.88
2022-09-03T06:16:53.339Z,98195.50
2022-09-03T06:19:56.425Z,98200.66
2022-09-03T06:23:00.445Z,98195.94
2022-09-03T06:26:05.588Z,98207.06
2022-09-03T06:29:08.634Z,98199.38
2022-09-03T06:32:11.325Z,98205.00
2022-09-03T06:35:14.262Z,98202.28
2022-09-03T06:38:21.344Z,98196.41
2022-09-03T06:41:25.892Z,98199.97
2022-09-03T06:44:28.619Z,98204.75
2022-09-03T06:47:31.891Z,98201.56
2022-09-03T06:50:34.899Z,98203.94
2022-09-03T06:53:40.447Z,98210.28
2022-09-03T06:56:43.243Z,98210.28
2022-09-03T06:59:45.880Z,98205.16
2022-09-03T07:02:48.786Z,98201.56
2022-09-03T07:05:51.641Z,98205.91
2022-09-03T07:08:58.013Z,98194.78
2022-09-03T07:12:01.420Z,98206.28
2022-09-03T07:15:04.460Z,98205.06
2022-09-03T07:18:07.267Z,98207.03
2022-09-03T07:21:11.280Z,98203.03
2022-09-03T07:24:15.348Z,98204.19
2022-09-03T07:27:17.992Z,98212.84
2022-09-03T07:30:20.650Z,98211.34
2022-09-03T07:33:23.239Z,98207.84
2022-09-03T07:36:27.875Z,98205.72
2022-09-03T07:39:33.644Z,98202.69
2022-09-03T07:42:38.498Z,98209.03
2022-09-03T07:45:41.361Z,98207.44
2022-09-03T07:48:49.116Z,98213.94
2022-09-03T07:51:54.419Z,98219.09
2022-09-03T07:54:59.363Z,98212.00
2022-09-03T07:58:01.933Z,98221.34
2022-09-03T08:01:11.147Z,98224.44
2022-09-03T08:04:14.409Z,98223.09
2022-09-03T08:07:17.048Z,98215.50
2022-09-03T08:10:21.126Z,98217.53
2022-09-03T08:13:23.999Z,98215.13
2022-09-03T08:16:31.124Z,98230.81
2022-09-03T08:19:33.996Z,98227.75
2022-09-03T08:22:37.488Z,98234.59
2022-09-03T08:25:41.557Z,98234.72
2022-09-03T08:28:44.736Z,98227.84
2022-09-03T08:31:47.400Z,98230.41
2022-09-03T08:34:50.732Z,98238.75
2022-09-03T08:37:56.794Z,98243.00
2022-09-03T08:41:06.238Z,98244.53
2022-09-03T08:44:18.069Z,98241.28
2022-09-03T08:47:23.657Z,98234.94
2022-09-03T08:50:27.947Z,98230.47
2022-09-03T08:53:37.615Z,98246.66
2022-09-03T08:56:42.279Z,98253.97
2022-09-03T08:59:44.898Z,98253.22
2022-09-03T09:03:01.453Z,98261.31
2022-09-03T09:06:10.095Z,98260.19
2022-09-03T09:09:22.221Z,98261.25
2022-09-03T09:12:42.799Z,98252.31
2022-09-03T09:15:53.572Z,98264.28
2022-09-03T09:19:11.493Z,98261.81
2022-09-03T09:22:19.106Z,98262.78
2022-09-03T09:25:24.290Z,98265.34
2022-09-03T09:28:32.083Z,98271.31
2022-09-03T09:31:35.583Z,98267.63
2022-09-03T09:34:39.565Z,98258.56
2022-09-03T09:37:52.302Z,98257.31
2022-09-03T09:40:57.179Z,98259.53
2022-09-03T09:44:06.029Z,98257.50
2022-09-03T09:47:11.917Z,98261.63
2022-09-03T09:50:25.051Z,98252.03
2022-09-03T09:53:30.320Z,98253.97
2022-09-03T09:56:33.283Z,98256.56
2022-09-03T09:59:38.525Z,98262.38
2022-09-03T10:02:42.563Z,98254.81
2022-09-03T10:06:02.311Z,98253.91
2022-09-03T10:09:10.029Z,98248.69
2022-09-03T10:12:19.682Z,98259.34
2022-09-03T10:15:27.466Z,98249.91
2022-09-03T10:18:37.319Z,98266.56
2022-09-03T10:21:44.948Z,98263.81
2022-09-03T10:24:52.549Z,98264.78
2022-09-03T10:27:56.830Z,98261.94
2022-09-03T10:31:16.221Z,98254.84
2022-09-03T10:34:23.797Z,98259.78
2022-09-03T10:37:33.366Z,98255.34
2022-09-03T10:40:39.312Z,98252.03
2022-09-03T10:43:54.706Z,98250.47
2022-09-03T10:47:04.136Z,98257.09
2022-09-03T10:50:13.149Z,98259.03
2022-09-03T10:53:23.104Z,98258.06
2022-09-03T10:56:31.235Z,98256.66
2022-09-03T10:59:43.775Z,98243.34
2022-09-03T11:03:03.595Z,98244.91
2022-09-03T11:06:10.040Z,98241.72
2022-09-03T11:09:18.918Z,98235.34
2022-09-03T11:12:26.006Z,98232.31
2022-09-03T11:15:33.212Z,98230.34
2022-09-03T11:18:41.323Z,98224.56
2022-09-03T11:21:45.014Z,98223.63
2022-09-03T11:24:53.467Z,98218.13
2022-09-03T11:28:09.050Z,98218.53
2022-09-03T11:31:24.015Z,98209.47
2022-09-03T11:34:45.649Z,98213.44
2022-09-03T11:37:55.077Z,98209.16
2022-09-03T11:41:02.382Z,98203.78
2022-09-03T11:44:18.171Z,98203.09
2022-09-03T11:47:24.266Z,98194.81
2022-09-03T11:50:29.842Z,98206.44
2022-09-03T11:53:37.906Z,98215.41
2022-09-03T11:56:42.233Z,98226.34
2022-09-03T11:59:45.725Z,98223.69
2022-09-03T12:02:51.639Z,98237.44
2022-09-03T12:06:11.858Z,98246.16
2022-09-03T12:09:25.529Z,98242.94
2022-09-03T12:12:49.640Z,98242.59
2022-09-03T12:16:23.194Z,98251.41
2022-09-03T12:19:30.198Z,98253.50
2022-09-03T12:22:38.701Z,98244.88
2022-09-03T12:25:45.746Z,98246.19
2022-09-03T12:28:49.750Z,98250.22
2022-09-03T12:31:56.418Z,98256.75
2022-09-03T12:34:59.678Z,98263.81
2022-09-03T12:38:05.185Z,98290.19
2022-09-03T12:41:23.464Z,98288.69
2022-09-03T12:44:32.639Z,98287.56
2022-09-03T12:47:40.744Z,98305.34
2022-09-03T12:50:49.490Z,98306.38
2022-09-03T12:54:01.269Z,98299.81
2022-09-03T12:57:04.688Z,98289.97
2022-09-03T13:00:09.758Z,98307.41
2022-09-03T13:03:14.483Z,98312.34
2022-09-03T13:06:20.127Z,98306.97
2022-09-03T13:09:26.439Z,98303.84
2022-09-03T13:12:33.316Z,98299.16
2022-09-03T13:15:36.335Z,98301.84
2022-09-03T13:18:43.503Z,98301.38
2022-09-03T13:21:50.318Z,98306.91
2022-09-03T13:25:05.898Z,98300.53
2022-09-03T13:28:17.288Z,98306.44
2022-09-03T13:31:28.316Z,98307.81
2022-09-03T13:34:33.853Z,98311.03
2022-09-03T13:37:39.829Z,98313.19
2022-09-03T13:40:48.534Z,98310.13
2022-09-03T13:43:56.175Z,98314.66
2022-09-03T13:47:01.969Z,98315.50
2022-09-03T13:50:23.401Z,98313.69
2022-09-03T13:53:35.922Z,98306.19
2022-09-03T13:56:52.129Z,98294.34
2022-09-03T13:59:58.136Z,98291.19
2022-09-03T14:03:09.229Z,98289.03
2022-09-03T14:06:20.163Z,98284.56
2022-09-03T14:09:34.240Z,98272.22
2022-09-03T14:12:46.814Z,98277.84
2022-09-03T14:15:53.572Z,98279.41
2022-09-03T14:18:59.127Z,98285.38
2022-09-03T14:22:15.216Z,98268.66
2022-09-03T14:25:19.621Z,98277.56
2022-09-03T14:28:31.152Z,98277.03
2022-09-03T14:31:53.516Z,98276.34
2022-09-03T14:35:07.861Z,98280.66
2022-09-03T14:38:33.100Z,98270.28
2022-09-03T14:42:11.542Z,98265.59
2022-09-03T14:45:30.247Z,98270.78
2022-09-03T14:48:55.393Z,98282.03
2022-09-03T14:52:09.340Z,98283.19
2022-09-03T14:55:22.923Z,98283.81
2022-09-03T14:58:36.408Z,98287.72
2022-09-03T15:01:40.689Z,98276.78
2022-09-03T15:04:53.388Z,98265.56
2022-09-03T15:07:58.110Z,98274.22
2022-09-03T15:11:02.426Z,98277.56
2022-09-03T15:14:11.791Z,98261.69
2022-09-03T15:17:34.269Z,98263.34
2022-09-03T15:20:47.222Z,98272.94
2022-09-03T15:24:00.038Z,98262.97
2022-09-03T15:27:13.717Z,98258.63
2022-09-03T15:30:19.001Z,98257.91
2022-09-03T15:33:30.308Z,98258.34
2022-09-03T15:36:37.563Z,98264.53
2022-09-03T15:39:43.169Z,98269.13
2022-09-03T15:42:47.949Z,98278.03
2022-09-03T15:45:57.874Z,98274.50
2022-09-03T15:49:04.769Z,98272.69
2022-09-03T15:52:11.562Z,98269.47
2022-09-03T15:55:16.685Z,98266.41
2022-09-03T15:58:25.592Z,98268.22
2022-09-03T16:01:34.270Z,98270.88
2022-09-03T16:04:50.567Z,98271.69
2022-09-03T16:08:06.376Z,98271.19
2022-09-03T16:11:12.283Z,98278.41
2022-09-03T16:14:17.633Z,98283.69
2022-09-03T16:17:28.866Z,98280.19
2022-09-03T16:20:37.824Z,98281.69
2022-09-03T16:23:44.310Z,98281.09
2022-09-03T16:26:51.993Z,98273.19
2022-09-03T16:30:00.473Z,98272.75
2022-09-03T16:33:09.519Z,98265.38
2022-09-03T16:36:30.112Z,98265.66
2022-09-03T16:39:41.996Z,98267.34
2022-09-03T16:42:48.804Z,98264.66
2022-09-03T16:46:00.927Z,98266.13
2022-09-03T16:49:12.522Z,98273.75
2022-09-03T16:52:37.822Z,98267.81
2022-09-03T16:55:59.089Z,98275.81
2022-09-03T16:59:10.772Z,98265.88
2022-09-03T17:02:41.561Z,98265.75
2022-09-03T17:06:03.351Z,98270.47
2022-09-03T17:09:13.953Z,98271.16
2022-09-03T17:12:25.816Z,98272.75
2022-09-03T17:15:35.014Z,98272.47
2022-09-03T17:18:45.471Z,98277.28
2022-09-03T17:21:50.789Z,98271.56
2022-09-03T17:25:02.158Z,98279.69
2022-09-03T17:28:24.774Z,98278.94
2022-09-03T17:31:37.259Z,98275.59
2022-09-03T17:34:54.599Z,98277.00
2022-09-03T17:38:02.043Z,98282.88
2022-09-03T17:41:16.474Z,98287.84
2022-09-03T17:44:28.012Z,98296.38
2022-09-03T17:47:50.013Z,98296.50
2022-09-03T17:50:55.697Z,98299.75
2022-09-03T17:54:05.530Z,98308.91
2022-09-03T17:57:16.806Z,98307.38
2022-09-03T18:00:25.242Z,98309.78
2022-09-03T18:03:32.916Z,98324.84
2022-09-03T18:06:43.644Z,98331.16
2022-09-03T18:09:53.869Z,98333.09
2022-09-03T18:13:08.382Z,98340.16
2022-09-03T18:16:15.677Z,98341.63
2022-09-03T18:19:31.086Z,98350.63
2022-09-03T18:22:55.706Z,98355.72
2022-09-03T18:26:18.834Z,98352.47
2022-09-03T18:29:52.322Z,98347.63
2022-09-03T18:33:15.557Z,98358.94
2022-09-03T18:36:35.996Z,98356.06
2022-09-03T18:39:56.198Z,98359.50
2022-09-03T18:43:24.988Z,98361.38
2022-09-03T18:50:39.464Z,98376.00
2022-09-03T18:54:02.258Z,98369.25
2022-09-03T18:57:27.262Z,98371.59
2022-09-03T19:00:49.544Z,98368.81
2022-09-03T19:04:20.026Z,98368.81
2022-09-03T19:07:46.661Z,98369.16
2022-09-03T19:11:10.685Z,98374.25
2022-09-03T19:14:39.600Z,98382.19
2022-09-03T19:18:18.339Z,98379.78
2022-09-03T19:21:45.556Z,98389.94
2022-09-03T19:25:16.549Z,98389.03
2022-09-03T19:28:39.040Z,98387.38
2022-09-03T19:32:03.076Z,98390.09
2022-09-03T19:35:33.281Z,98390.00
2022-09-03T19:39:04.708Z,98395.06
2022-09-03T19:42:32.035Z,98402.81
2022-09-03T19:46:00.518Z,98405.47
2022-09-03T19:49:27.937Z,98417.56
2022-09-03T19:52:53.216Z,98410.44
2022-09-03T19:56:16.828Z,98414.75
2022-09-03T19:59:39.173Z,98419.84
2022-09-03T20:03:00.600Z,98415.72
2022-09-03T20:06:23.868Z,98424.41
2022-09-03T20:09:48.687Z,98428.53
2022-09-03T20:13:00.503Z,98419.94
2022-09-03T20:16:08.425Z,98423.19
2022-09-03T20:19:18.874Z,98423.97
2022-09-03T20:22:30.741Z,98428.66
2022-09-03T20:25:50.461Z,98428.38
2022-09-03T20:29:16.739Z,98428.84
2022-09-03T20:32:32.496Z,98437.53
2022-09-03T20:35:44.881Z,98440.53
2022-09-03T20:39:23.036Z,98438.81
2022-09-03T20:42:42.223Z,98445.03
2022-09-03T20:45:56.329Z,98446.81
2022-09-03T20:49:05.170Z,98454.28
2022-09-03T20:52:11.184Z,98454.28
2022-09-03T20:55:21.337Z,98458.94
2022-09-03T20:58:27.500Z,98461.31
2022-09-03T21:01:36.642Z,98459.41
2022-09-03T21:04:52.393Z,98467.06
2022-09-03T21:08:01.649Z,98459.91
2022-09-03T21:11:07.731Z,98455.97
2022-09-03T21:14:20.539Z,98470.25
2022-09-03T21:17:35.297Z,98463.25
2022-09-03T21:20:44.271Z,98465.69
2022-09-03T21:23:49.545Z,98467.38
2022-09-03T21:26:54.965Z,98478.59
2022-09-03T21:30:02.181Z,98475.19
2022-09-03T21:33:10.068Z,98477.25
2022-09-03T21:36:15.789Z,98468.94
2022-09-03T21:39:22.573Z,98468.03
2022-09-03T21:42:28.566Z,98467.72
2022-09-03T21:45:36.480Z,98471.75
2022-09-03T21:48:42.553Z,98478.97
2022-09-03T21:51:51.049Z,98478.31
2022-09-03T21:54:54.917Z,98487.06
2022-09-03T21:58:09.651Z,98504.91
2022-09-03T22:01:16.511Z,98503.25
2022-09-03T22:04:20.555Z,98482.78
2022-09-03T22:07:30.862Z,98473.44
2022-09-03T22:10:36.063Z,98483.25
2022-09-03T22:13:44.030Z,98494.59
2022-09-03T22:16:49.675Z,98496.56
2022-09-03T22:19:53.697Z,98489.28
2022-09-03T22:22:59.069Z,98483.84
2022-09-03T22:26:07.441Z,98496.47
2022-09-03T22:29:16.067Z,98500.03
2022-09-03T22:32:28.580Z,98508.13
2022-09-03T22:35:53.255Z,98512.50
2022-09-03T22:39:04.686Z,98505.06
2022-09-03T22:42:29.371Z,98518.88
2022-09-03T22:45:45.182Z,98511.75
2022-09-03T22:49:07.269Z,98517.00
2022-09-03T22:52:29.961Z,98515.16
2022-09-03T22:55:34.028Z,98513.88
2022-09-03T22:58:40.548Z,98510.31
2022-09-03T23:01:45.447Z,98517.19
2022-09-03T23:04:52.250Z,98518.41
2022-09-03T23:07:58.895Z,98516.25
2022-09-03T23:11:06.297Z,98516.50
2022-09-03T23:14:12.505Z,98524.28
2022-09-03T23:17:20.200Z,98515.72
2022-09-03T23:20:25.433Z,98522.34
2022-09-03T23:23:32.528Z,98525.41
2022-09-03T23:26:38.608Z,98524.53
2022-09-03T23:29:43.690Z,98523.47
2022-09-03T23:32:46.353Z,98517.81
2022-09-03T23:35:54.963Z,98524.16
2022-09-03T23:39:04.849Z,98522.44
2022-09-03T23:42:15.139Z,98523.31
2022-09-03T23:45:23.786Z,98521.19
2022-09-03T23:48:36.781Z,98534.41
2022-09-03T23:51:50.768Z,98529.50
2022-09-03T23:55:01.997Z,98534.91
2022-09-03T23:58:10.694Z,98531.66
